sensor_id;sensor_type;location;lat;lon;timestamp;P1;durP1;ratioP1;P2;durP2;ratioP2
40729;SDS011;26418;50.070;8.436;2022-11-30T00:01:12;43.92;;;20.38;;
40729;SDS011;26418;50.070;8.436;2022-11-30T00:03:39;36.50;;;17.67;;
40729;SDS011;26418;50.070;8.436;2022-11-30T00:06:05;34.28;;;17.15;;
40729;SDS011;26418;50.070;8.436;2022-11-30T00:08:33;37.78;;;17.02;;
40729;SDS011;26418;50.070;8.436;2022-11-30T00:10:58;30.23;;;13.95;;
40729;SDS011;26418;50.070;8.436;2022-11-30T00:13:23;32.33;;;14.60;;
40729;SDS011;26418;50.070;8.436;2022-11-30T00:15:49;33.85;;;14.73;;
40729;SDS011;26418;50.070;8.436;2022-11-30T00:18:14;31.02;;;14.73;;
40729;SDS011;26418;50.070;8.436;2022-11-30T00:20:41;35.25;;;16.27;;
40729;SDS011;26418;50.070;8.436;2022-11-30T00:23:07;50.67;;;19.63;;
40729;SDS011;26418;50.070;8.436;2022-11-30T00:25:34;49.28;;;21.65;;
40729;SDS011;26418;50.070;8.436;2022-11-30T00:27:59;50.22;;;20.25;;
40729;SDS011;26418;50.070;8.436;2022-11-30T00:30:25;43.85;;;20.55;;
40729;SDS011;26418;50.070;8.436;2022-11-30T00:32:51;52.97;;;20.63;;
40729;SDS011;26418;50.070;8.436;2022-11-30T00:35:21;48.67;;;21.80;;
40729;SDS011;26418;50.070;8.436;2022-11-30T00:37:46;49.10;;;20.58;;
40729;SDS011;26418;50.070;8.436;2022-11-30T00:40:11;47.10;;;20.40;;
40729;SDS011;26418;50.070;8.436;2022-11-30T00:42:38;38.90;;;19.50;;
40729;SDS011;26418;50.070;8.436;2022-11-30T00:45:03;46.42;;;19.60;;
40729;SDS011;26418;50.070;8.436;2022-11-30T00:47:29;38.70;;;16.40;;
40729;SDS011;26418;50.070;8.436;2022-11-30T00:49:55;44.35;;;18.73;;
40729;SDS011;26418;50.070;8.436;2022-11-30T00:52:20;41.38;;;17.10;;
40729;SDS011;26418;50.070;8.436;2022-11-30T00:54:46;37.78;;;17.50;;
40729;SDS011;26418;50.070;8.436;2022-11-30T00:57:11;37.05;;;17.02;;
40729;SDS011;26418;50.070;8.436;2022-11-30T00:59:37;46.83;;;18.77;;
40729;SDS011;26418;50.070;8.436;2022-11-30T01:02:02;42.30;;;17.92;;
40729;SDS011;26418;50.070;8.436;2022-11-30T01:04:28;38.40;;;17.58;;
40729;SDS011;26418;50.070;8.436;2022-11-30T01:06:54;49.42;;;18.40;;
40729;SDS011;26418;50.070;8.436;2022-11-30T01:09:19;39.50;;;17.67;;
40729;SDS011;26418;50.070;8.436;2022-11-30T01:11:45;38.75;;;16.98;;
40729;SDS011;26418;50.070;8.436;2022-11-30T01:14:10;45.33;;;19.48;;
40729;SDS011;26418;50.070;8.436;2022-11-30T01:16:36;50.03;;;22.05;;
40729;SDS011;26418;50.070;8.436;2022-11-30T01:19:01;56.75;;;22.52;;
40729;SDS011;26418;50.070;8.436;2022-11-30T01:21:28;60.80;;;23.92;;
40729;SDS011;26418;50.070;8.436;2022-11-30T01:23:54;53.65;;;21.67;;
40729;SDS011;26418;50.070;8.436;2022-11-30T01:26:20;54.47;;;21.13;;
40729;SDS011;26418;50.070;8.436;2022-11-30T01:28:49;54.75;;;22.80;;
40729;SDS011;26418;50.070;8.436;2022-11-30T01:31:16;51.97;;;21.17;;
40729;SDS011;26418;50.070;8.436;2022-11-30T01:33:42;58.25;;;22.67;;
40729;SDS011;26418;50.070;8.436;2022-11-30T01:36:14;54.67;;;21.95;;
40729;SDS011;26418;50.070;8.436;2022-11-30T01:38:42;65.82;;;23.00;;
40729;SDS011;26418;50.070;8.436;2022-11-30T01:41:20;43.10;;;19.98;;
40729;SDS011;26418;50.070;8.436;2022-11-30T01:43:48;44.90;;;20.45;;
40729;SDS011;26418;50.070;8.436;2022-11-30T01:49:01;47.67;;;19.05;;
40729;SDS011;26418;50.070;8.436;2022-11-30T01:51:39;50.90;;;20.80;;
40729;SDS011;26418;50.070;8.436;2022-11-30T01:56:36;54.90;;;19.02;;
40729;SDS011;26418;50.070;8.436;2022-11-30T01:59:08;43.03;;;18.85;;
40729;SDS011;26418;50.070;8.436;2022-11-30T02:01:34;47.30;;;19.90;;
40729;SDS011;26418;50.070;8.436;2022-11-30T02:04:19;62.10;;;23.00;;
40729;SDS011;26418;50.070;8.436;2022-11-30T02:06:48;58.17;;;22.85;;
40729;SDS011;26418;50.070;8.436;2022-11-30T02:09:15;55.60;;;21.85;;
40729;SDS011;26418;50.070;8.436;2022-11-30T02:11:42;60.50;;;23.10;;
40729;SDS011;26418;50.070;8.436;2022-11-30T02:31:09;49.65;;;20.15;;
40729;SDS011;26418;50.070;8.436;2022-11-30T02:33:36;47.47;;;19.02;;
40729;SDS011;26418;50.070;8.436;2022-11-30T02:36:05;48.60;;;19.50;;
40729;SDS011;26418;50.070;8.436;2022-11-30T02:38:32;44.80;;;18.02;;
40729;SDS011;26418;50.070;8.436;2022-11-30T02:40:58;41.05;;;19.20;;
40729;SDS011;26418;50.070;8.436;2022-11-30T02:43:24;41.65;;;17.08;;
40729;SDS011;26418;50.070;8.436;2022-11-30T02:49:10;61.75;;;22.55;;
40729;SDS011;26418;50.070;8.436;2022-11-30T02:51:43;53.83;;;21.45;;
40729;SDS011;26418;50.070;8.436;2022-11-30T02:54:11;56.25;;;23.17;;
40729;SDS011;26418;50.070;8.436;2022-11-30T02:56:36;56.85;;;20.33;;
40729;SDS011;26418;50.070;8.436;2022-11-30T02:59:02;45.95;;;20.05;;
40729;SDS011;26418;50.070;8.436;2022-11-30T03:01:28;64.30;;;22.52;;
40729;SDS011;26418;50.070;8.436;2022-11-30T03:03:54;56.67;;;23.73;;
40729;SDS011;26418;50.070;8.436;2022-11-30T03:06:19;59.50;;;24.08;;
40729;SDS011;26418;50.070;8.436;2022-11-30T03:08:45;56.97;;;22.58;;
40729;SDS011;26418;50.070;8.436;2022-11-30T03:11:10;62.72;;;24.15;;
40729;SDS011;26418;50.070;8.436;2022-11-30T03:13:36;59.78;;;22.75;;
40729;SDS011;26418;50.070;8.436;2022-11-30T03:16:08;56.45;;;22.48;;
40729;SDS011;26418;50.070;8.436;2022-11-30T03:18:36;56.50;;;22.83;;
40729;SDS011;26418;50.070;8.436;2022-11-30T03:21:06;60.75;;;22.35;;
40729;SDS011;26418;50.070;8.436;2022-11-30T03:23:32;56.78;;;23.58;;
40729;SDS011;26418;50.070;8.436;2022-11-30T03:25:59;53.03;;;20.33;;
40729;SDS011;26418;50.070;8.436;2022-11-30T03:28:26;46.10;;;18.08;;
40729;SDS011;26418;50.070;8.436;2022-11-30T03:30:51;43.88;;;17.98;;
40729;SDS011;26418;50.070;8.436;2022-11-30T03:33:17;45.20;;;19.20;;
40729;SDS011;26418;50.070;8.436;2022-11-30T03:35:43;48.95;;;18.77;;
40729;SDS011;26418;50.070;8.436;2022-11-30T03:38:09;46.42;;;18.83;;
40729;SDS011;26418;50.070;8.436;2022-11-30T03:40:35;46.75;;;19.00;;
40729;SDS011;26418;50.070;8.436;2022-11-30T03:43:01;53.28;;;22.00;;
40729;SDS011;26418;50.070;8.436;2022-11-30T03:45:28;48.97;;;20.30;;
40729;SDS011;26418;50.070;8.436;2022-11-30T03:47:54;50.72;;;20.85;;
40729;SDS011;26418;50.070;8.436;2022-11-30T03:50:19;45.47;;;19.02;;
40729;SDS011;26418;50.070;8.436;2022-11-30T03:52:45;49.17;;;20.13;;
40729;SDS011;26418;50.070;8.436;2022-11-30T03:55:10;45.05;;;19.60;;
40729;SDS011;26418;50.070;8.436;2022-11-30T03:57:36;56.13;;;21.50;;
40729;SDS011;26418;50.070;8.436;2022-11-30T04:00:03;49.78;;;20.58;;
40729;SDS011;26418;50.070;8.436;2022-11-30T04:02:30;45.50;;;19.92;;
40729;SDS011;26418;50.070;8.436;2022-11-30T04:04:55;55.10;;;22.17;;
40729;SDS011;26418;50.070;8.436;2022-11-30T04:07:21;50.83;;;21.98;;
40729;SDS011;26418;50.070;8.436;2022-11-30T04:09:46;51.92;;;21.48;;
40729;SDS011;26418;50.070;8.436;2022-11-30T04:12:12;53.75;;;21.48;;
40729;SDS011;26418;50.070;8.436;2022-11-30T04:14:37;50.80;;;21.30;;
40729;SDS011;26418;50.070;8.436;2022-11-30T04:17:03;46.63;;;19.15;;
40729;SDS011;26418;50.070;8.436;2022-11-30T04:19:29;50.72;;;20.65;;
40729;SDS011;26418;50.070;8.436;2022-11-30T04:21:54;54.20;;;21.52;;
40729;SDS011;26418;50.070;8.436;2022-11-30T04:24:20;57.97;;;20.35;;
40729;SDS011;26418;50.070;8.436;2022-11-30T04:26:45;48.65;;;19.23;;
40729;SDS011;26418;50.070;8.436;2022-11-30T04:29:11;45.47;;;18.80;;
40729;SDS011;26418;50.070;8.436;2022-11-30T04:31:37;41.25;;;17.52;;
40729;SDS011;26418;50.070;8.436;2022-11-30T04:34:02;41.00;;;15.93;;
40729;SDS011;26418;50.070;8.436;2022-11-30T04:36:28;44.20;;;16.55;;
40729;SDS011;26418;50.070;8.436;2022-11-30T04:38:54;40.83;;;16.08;;
40729;SDS011;26418;50.070;8.436;2022-11-30T04:41:19;40.30;;;15.88;;
40729;SDS011;26418;50.070;8.436;2022-11-30T04:43:45;53.17;;;20.50;;
40729;SDS011;26418;50.070;8.436;2022-11-30T04:46:11;42.05;;;17.80;;
40729;SDS011;26418;50.070;8.436;2022-11-30T04:48:36;33.40;;;14.85;;
40729;SDS011;26418;50.070;8.436;2022-11-30T04:51:03;33.00;;;15.65;;
40729;SDS011;26418;50.070;8.436;2022-11-30T04:53:30;41.10;;;15.82;;
40729;SDS011;26418;50.070;8.436;2022-11-30T04:55:56;42.08;;;15.00;;
40729;SDS011;26418;50.070;8.436;2022-11-30T04:58:22;49.25;;;18.92;;
40729;SDS011;26418;50.070;8.436;2022-11-30T05:00:47;49.83;;;20.27;;
40729;SDS011;26418;50.070;8.436;2022-11-30T05:03:13;57.53;;;21.23;;
40729;SDS011;26418;50.070;8.436;2022-11-30T05:05:38;58.33;;;20.67;;
40729;SDS011;26418;50.070;8.436;2022-11-30T05:08:04;55.00;;;19.60;;
40729;SDS011;26418;50.070;8.436;2022-11-30T05:10:30;45.28;;;18.63;;
40729;SDS011;26418;50.070;8.436;2022-11-30T05:12:58;55.47;;;19.52;;
40729;SDS011;26418;50.070;8.436;2022-11-30T05:15:23;47.75;;;17.80;;
40729;SDS011;26418;50.070;8.436;2022-11-30T05:17:49;50.03;;;19.50;;
40729;SDS011;26418;50.070;8.436;2022-11-30T05:20:15;52.25;;;20.17;;
40729;SDS011;26418;50.070;8.436;2022-11-30T05:22:41;42.75;;;18.05;;
40729;SDS011;26418;50.070;8.436;2022-11-30T05:25:07;48.95;;;19.35;;
40729;SDS011;26418;50.070;8.436;2022-11-30T05:27:33;49.53;;;19.35;;
40729;SDS011;26418;50.070;8.436;2022-11-30T05:29:59;42.65;;;17.25;;
40729;SDS011;26418;50.070;8.436;2022-11-30T05:32:25;44.25;;;16.45;;
40729;SDS011;26418;50.070;8.436;2022-11-30T05:34:50;33.22;;;13.65;;
40729;SDS011;26418;50.070;8.436;2022-11-30T05:37:16;22.38;;;10.18;;
40729;SDS011;26418;50.070;8.436;2022-11-30T05:39:42;24.40;;;10.25;;
40729;SDS011;26418;50.070;8.436;2022-11-30T05:42:10;33.65;;;11.77;;
40729;SDS011;26418;50.070;8.436;2022-11-30T05:44:36;34.03;;;11.80;;
40729;SDS011;26418;50.070;8.436;2022-11-30T05:47:01;38.33;;;14.65;;
40729;SDS011;26418;50.070;8.436;2022-11-30T05:49:27;30.23;;;13.57;;
40729;SDS011;26418;50.070;8.436;2022-11-30T05:51:52;26.38;;;12.68;;
40729;SDS011;26418;50.070;8.436;2022-11-30T05:54:18;28.48;;;11.88;;
40729;SDS011;26418;50.070;8.436;2022-11-30T05:56:43;24.20;;;10.43;;
40729;SDS011;26418;50.070;8.436;2022-11-30T05:59:09;30.67;;;11.27;;
40729;SDS011;26418;50.070;8.436;2022-11-30T06:01:35;23.95;;;10.98;;
40729;SDS011;26418;50.070;8.436;2022-11-30T06:04:03;26.33;;;11.35;;
40729;SDS011;26418;50.070;8.436;2022-11-30T06:06:30;26.02;;;12.43;;
40729;SDS011;26418;50.070;8.436;2022-11-30T06:08:57;27.10;;;11.15;;
40729;SDS011;26418;50.070;8.436;2022-11-30T06:11:22;31.63;;;13.57;;
40729;SDS011;26418;50.070;8.436;2022-11-30T06:13:48;37.05;;;13.57;;
40729;SDS011;26418;50.070;8.436;2022-11-30T06:16:13;34.85;;;13.90;;
40729;SDS011;26418;50.070;8.436;2022-11-30T06:18:39;35.42;;;15.35;;
40729;SDS011;26418;50.070;8.436;2022-11-30T06:21:06;34.72;;;14.88;;
40729;SDS011;26418;50.070;8.436;2022-11-30T06:23:34;33.17;;;15.45;;
40729;SDS011;26418;50.070;8.436;2022-11-30T06:26:07;30.63;;;15.57;;
40729;SDS011;26418;50.070;8.436;2022-11-30T06:28:35;37.03;;;15.50;;
40729;SDS011;26418;50.070;8.436;2022-11-30T06:31:02;39.95;;;17.83;;
40729;SDS011;26418;50.070;8.436;2022-11-30T06:33:32;41.00;;;20.83;;
40729;SDS011;26418;50.070;8.436;2022-11-30T06:35:59;45.38;;;20.92;;
40729;SDS011;26418;50.070;8.436;2022-11-30T06:38:24;37.15;;;17.83;;
40729;SDS011;26418;50.070;8.436;2022-11-30T06:40:51;32.65;;;17.35;;
40729;SDS011;26418;50.070;8.436;2022-11-30T06:43:17;47.60;;;21.58;;
40729;SDS011;26418;50.070;8.436;2022-11-30T06:45:43;43.83;;;18.65;;
40729;SDS011;26418;50.070;8.436;2022-11-30T06:48:09;46.55;;;18.90;;
40729;SDS011;26418;50.070;8.436;2022-11-30T06:50:35;38.03;;;18.08;;
40729;SDS011;26418;50.070;8.436;2022-11-30T06:53:00;31.50;;;16.48;;
40729;SDS011;26418;50.070;8.436;2022-11-30T06:55:26;32.47;;;16.80;;
40729;SDS011;26418;50.070;8.436;2022-11-30T06:57:52;38.15;;;17.73;;
40729;SDS011;26418;50.070;8.436;2022-11-30T07:00:17;35.28;;;15.77;;
40729;SDS011;26418;50.070;8.436;2022-11-30T07:02:43;33.78;;;14.07;;
40729;SDS011;26418;50.070;8.436;2022-11-30T07:05:09;32.05;;;14.48;;
40729;SDS011;26418;50.070;8.436;2022-11-30T07:07:34;35.83;;;14.57;;
40729;SDS011;26418;50.070;8.436;2022-11-30T07:10:00;35.35;;;14.60;;
40729;SDS011;26418;50.070;8.436;2022-11-30T07:12:26;37.08;;;14.80;;
40729;SDS011;26418;50.070;8.436;2022-11-30T07:14:52;33.28;;;14.68;;
40729;SDS011;26418;50.070;8.436;2022-11-30T07:17:22;32.08;;;14.82;;
40729;SDS011;26418;50.070;8.436;2022-11-30T07:19:48;35.85;;;15.07;;
40729;SDS011;26418;50.070;8.436;2022-11-30T07:22:13;29.92;;;13.35;;
40729;SDS011;26418;50.070;8.436;2022-11-30T07:24:39;31.85;;;13.93;;
40729;SDS011;26418;50.070;8.436;2022-11-30T07:27:23;28.27;;;13.40;;
40729;SDS011;26418;50.070;8.436;2022-11-30T07:29:49;31.38;;;14.15;;
40729;SDS011;26418;50.070;8.436;2022-11-30T07:32:16;27.52;;;13.63;;
40729;SDS011;26418;50.070;8.436;2022-11-30T07:34:42;34.17;;;15.48;;
40729;SDS011;26418;50.070;8.436;2022-11-30T07:37:08;28.40;;;12.82;;
40729;SDS011;26418;50.070;8.436;2022-11-30T07:39:33;31.73;;;16.00;;
40729;SDS011;26418;50.070;8.436;2022-11-30T07:41:59;36.03;;;16.17;;
40729;SDS011;26418;50.070;8.436;2022-11-30T07:44:24;30.98;;;13.60;;
40729;SDS011;26418;50.070;8.436;2022-11-30T07:46:50;31.95;;;13.82;;
40729;SDS011;26418;50.070;8.436;2022-11-30T07:49:16;30.13;;;14.68;;
40729;SDS011;26418;50.070;8.436;2022-11-30T07:51:41;31.88;;;14.43;;
40729;SDS011;26418;50.070;8.436;2022-11-30T07:54:07;33.10;;;15.07;;
40729;SDS011;26418;50.070;8.436;2022-11-30T07:56:33;30.10;;;14.35;;
40729;SDS011;26418;50.070;8.436;2022-11-30T07:58:59;33.17;;;15.65;;
40729;SDS011;26418;50.070;8.436;2022-11-30T08:01:26;31.75;;;14.52;;
40729;SDS011;26418;50.070;8.436;2022-11-30T08:03:53;33.78;;;14.30;;
40729;SDS011;26418;50.070;8.436;2022-11-30T08:06:29;26.13;;;12.75;;
40729;SDS011;26418;50.070;8.436;2022-11-30T08:08:56;23.27;;;12.02;;
40729;SDS011;26418;50.070;8.436;2022-11-30T08:11:25;31.67;;;13.50;;
40729;SDS011;26418;50.070;8.436;2022-11-30T08:13:52;24.33;;;12.65;;
40729;SDS011;26418;50.070;8.436;2022-11-30T08:16:20;26.65;;;12.15;;
40729;SDS011;26418;50.070;8.436;2022-11-30T08:18:47;28.23;;;12.07;;
40729;SDS011;26418;50.070;8.436;2022-11-30T08:21:14;24.55;;;10.52;;
40729;SDS011;26418;50.070;8.436;2022-11-30T08:23:42;35.33;;;15.35;;
40729;SDS011;26418;50.070;8.436;2022-11-30T08:26:13;32.40;;;14.85;;
40729;SDS011;26418;50.070;8.436;2022-11-30T08:28:44;37.30;;;16.33;;
40729;SDS011;26418;50.070;8.436;2022-11-30T08:31:13;30.35;;;14.73;;
40729;SDS011;26418;50.070;8.436;2022-11-30T08:33:41;27.77;;;13.88;;
40729;SDS011;26418;50.070;8.436;2022-11-30T08:38:37;26.88;;;12.68;;
40729;SDS011;26418;50.070;8.436;2022-11-30T08:41:03;23.23;;;12.07;;
40729;SDS011;26418;50.070;8.436;2022-11-30T08:43:30;26.88;;;12.80;;
40729;SDS011;26418;50.070;8.436;2022-11-30T08:45:56;25.52;;;12.40;;
40729;SDS011;26418;50.070;8.436;2022-11-30T08:48:22;26.65;;;10.80;;
40729;SDS011;26418;50.070;8.436;2022-11-30T08:50:48;24.23;;;11.70;;
40729;SDS011;26418;50.070;8.436;2022-11-30T08:53:13;29.33;;;14.48;;
40729;SDS011;26418;50.070;8.436;2022-11-30T08:55:39;35.42;;;15.18;;
40729;SDS011;26418;50.070;8.436;2022-11-30T08:58:05;24.92;;;11.18;;
40729;SDS011;26418;50.070;8.436;2022-11-30T09:00:31;26.80;;;12.13;;
40729;SDS011;26418;50.070;8.436;2022-11-30T09:02:56;31.48;;;13.10;;
40729;SDS011;26418;50.070;8.436;2022-11-30T09:05:22;29.50;;;14.40;;
40729;SDS011;26418;50.070;8.436;2022-11-30T09:07:48;27.58;;;13.30;;
40729;SDS011;26418;50.070;8.436;2022-11-30T09:10:13;28.10;;;13.85;;
40729;SDS011;26418;50.070;8.436;2022-11-30T09:12:39;26.38;;;13.57;;
40729;SDS011;26418;50.070;8.436;2022-11-30T09:15:06;27.55;;;12.50;;
40729;SDS011;26418;50.070;8.436;2022-11-30T09:17:32;26.30;;;12.68;;
40729;SDS011;26418;50.070;8.436;2022-11-30T09:19:58;26.70;;;12.35;;
40729;SDS011;26418;50.070;8.436;2022-11-30T09:22:24;24.30;;;12.52;;
40729;SDS011;26418;50.070;8.436;2022-11-30T09:24:50;24.77;;;13.23;;
40729;SDS011;26418;50.070;8.436;2022-11-30T09:27:16;24.45;;;12.05;;
40729;SDS011;26418;50.070;8.436;2022-11-30T09:29:42;25.05;;;11.40;;
40729;SDS011;26418;50.070;8.436;2022-11-30T09:32:07;26.85;;;12.85;;
40729;SDS011;26418;50.070;8.436;2022-11-30T09:34:33;25.70;;;12.13;;
40729;SDS011;26418;50.070;8.436;2022-11-30T09:36:58;23.23;;;12.23;;
40729;SDS011;26418;50.070;8.436;2022-11-30T09:39:24;30.70;;;13.18;;
40729;SDS011;26418;50.070;8.436;2022-11-30T09:49:55;38.38;;;17.73;;
40729;SDS011;26418;50.070;8.436;2022-11-30T09:52:32;38.65;;;18.52;;
40729;SDS011;26418;50.070;8.436;2022-11-30T09:55:00;37.25;;;16.63;;
40729;SDS011;26418;50.070;8.436;2022-11-30T10:00:15;40.42;;;17.40;;
40729;SDS011;26418;50.070;8.436;2022-11-30T10:02:51;35.30;;;15.98;;
40729;SDS011;26418;50.070;8.436;2022-11-30T10:10:48;37.10;;;17.38;;
40729;SDS011;26418;50.070;8.436;2022-11-30T10:19:05;30.15;;;14.60;;
40729;SDS011;26418;50.070;8.436;2022-11-30T10:21:39;41.83;;;18.17;;
40729;SDS011;26418;50.070;8.436;2022-11-30T10:26:56;38.63;;;18.15;;
40729;SDS011;26418;50.070;8.436;2022-11-30T10:29:28;34.55;;;17.08;;
40729;SDS011;26418;50.070;8.436;2022-11-30T10:32:00;40.95;;;18.52;;
40729;SDS011;26418;50.070;8.436;2022-11-30T10:34:36;33.70;;;15.63;;
40729;SDS011;26418;50.070;8.436;2022-11-30T10:37:11;31.38;;;15.18;;
40729;SDS011;26418;50.070;8.436;2022-11-30T10:42:33;30.65;;;16.45;;
40729;SDS011;26418;50.070;8.436;2022-11-30T10:47:37;31.88;;;14.70;;
40729;SDS011;26418;50.070;8.436;2022-11-30T10:52:40;26.25;;;15.57;;
40729;SDS011;26418;50.070;8.436;2022-11-30T10:55:20;31.63;;;16.73;;
40729;SDS011;26418;50.070;8.436;2022-11-30T10:57:49;33.70;;;15.52;;
40729;SDS011;26418;50.070;8.436;2022-11-30T11:00:20;31.45;;;16.00;;
40729;SDS011;26418;50.070;8.436;2022-11-30T11:02:46;33.83;;;16.42;;
40729;SDS011;26418;50.070;8.436;2022-11-30T11:05:20;32.50;;;15.70;;
40729;SDS011;26418;50.070;8.436;2022-11-30T11:10:48;29.77;;;16.63;;
40729;SDS011;26418;50.070;8.436;2022-11-30T11:13:16;32.60;;;17.38;;
40729;SDS011;26418;50.070;8.436;2022-11-30T11:16:01;34.47;;;17.42;;
40729;SDS011;26418;50.070;8.436;2022-11-30T11:18:29;32.22;;;15.82;;
40729;SDS011;26418;50.070;8.436;2022-11-30T11:21:03;29.67;;;15.68;;
40729;SDS011;26418;50.070;8.436;2022-11-30T11:23:40;30.35;;;15.65;;
40729;SDS011;26418;50.070;8.436;2022-11-30T11:26:22;30.33;;;15.02;;
40729;SDS011;26418;50.070;8.436;2022-11-30T11:28:50;34.08;;;15.40;;
40729;SDS011;26418;50.070;8.436;2022-11-30T11:34:43;31.02;;;15.15;;
40729;SDS011;26418;50.070;8.436;2022-11-30T11:39:57;37.97;;;18.25;;
40729;SDS011;26418;50.070;8.436;2022-11-30T11:42:23;33.80;;;16.27;;
40729;SDS011;26418;50.070;8.436;2022-11-30T11:44:51;38.47;;;20.00;;
40729;SDS011;26418;50.070;8.436;2022-11-30T11:47:21;33.75;;;18.20;;
40729;SDS011;26418;50.070;8.436;2022-11-30T11:50:02;32.38;;;17.92;;
40729;SDS011;26418;50.070;8.436;2022-11-30T11:52:48;39.67;;;17.45;;
40729;SDS011;26418;50.070;8.436;2022-11-30T11:55:17;43.33;;;21.38;;
40729;SDS011;26418;50.070;8.436;2022-11-30T11:57:55;36.67;;;19.75;;
40729;SDS011;26418;50.070;8.436;2022-11-30T12:00:24;44.67;;;21.65;;
40729;SDS011;26418;50.070;8.436;2022-11-30T12:05:43;43.97;;;21.58;;
40729;SDS011;26418;50.070;8.436;2022-11-30T12:11:28;36.80;;;20.83;;
40729;SDS011;26418;50.070;8.436;2022-11-30T12:14:08;37.80;;;20.30;;
40729;SDS011;26418;50.070;8.436;2022-11-30T12:16:39;39.50;;;20.85;;
40729;SDS011;26418;50.070;8.436;2022-11-30T12:19:23;34.08;;;18.27;;
40729;SDS011;26418;50.070;8.436;2022-11-30T12:28:27;39.75;;;20.13;;
40729;SDS011;26418;50.070;8.436;2022-11-30T12:31:11;38.78;;;20.00;;
40729;SDS011;26418;50.070;8.436;2022-11-30T12:33:43;41.10;;;20.10;;
40729;SDS011;26418;50.070;8.436;2022-11-30T12:36:15;39.15;;;20.40;;
40729;SDS011;26418;50.070;8.436;2022-11-30T12:38:56;42.78;;;21.35;;
40729;SDS011;26418;50.070;8.436;2022-11-30T12:41:30;42.72;;;21.80;;
40729;SDS011;26418;50.070;8.436;2022-11-30T12:44:14;35.45;;;21.35;;
40729;SDS011;26418;50.070;8.436;2022-11-30T12:47:16;40.83;;;21.67;;
40729;SDS011;26418;50.070;8.436;2022-11-30T12:50:20;39.05;;;21.67;;
40729;SDS011;26418;50.070;8.436;2022-11-30T13:00:55;38.70;;;20.67;;
40729;SDS011;26418;50.070;8.436;2022-11-30T13:06:09;39.42;;;19.60;;
40729;SDS011;26418;50.070;8.436;2022-11-30T13:11:18;37.25;;;19.20;;
40729;SDS011;26418;50.070;8.436;2022-11-30T13:13:54;42.03;;;20.83;;
40729;SDS011;26418;50.070;8.436;2022-11-30T13:16:22;38.15;;;19.67;;
40729;SDS011;26418;50.070;8.436;2022-11-30T13:18:49;35.10;;;17.80;;
40729;SDS011;26418;50.070;8.436;2022-11-30T13:24:14;37.58;;;19.90;;
40729;SDS011;26418;50.070;8.436;2022-11-30T13:34:28;37.00;;;20.02;;
40729;SDS011;26418;50.070;8.436;2022-11-30T13:39:41;38.10;;;18.27;;
40729;SDS011;26418;50.070;8.436;2022-11-30T13:50:05;45.05;;;18.88;;
40729;SDS011;26418;50.070;8.436;2022-11-30T13:58:08;44.13;;;23.02;;
40729;SDS011;26418;50.070;8.436;2022-11-30T14:05:46;43.13;;;21.42;;
40729;SDS011;26418;50.070;8.436;2022-11-30T14:10:52;42.83;;;21.85;;
40729;SDS011;26418;50.070;8.436;2022-11-30T14:13:38;43.63;;;22.25;;
40729;SDS011;26418;50.070;8.436;2022-11-30T14:16:04;45.83;;;20.80;;
40729;SDS011;26418;50.070;8.436;2022-11-30T14:18:47;49.63;;;22.17;;
40729;SDS011;26418;50.070;8.436;2022-11-30T14:31:41;47.08;;;22.42;;
40729;SDS011;26418;50.070;8.436;2022-11-30T14:34:16;48.85;;;22.15;;
40729;SDS011;26418;50.070;8.436;2022-11-30T14:39:41;48.35;;;21.77;;
40729;SDS011;26418;50.070;8.436;2022-11-30T14:42:20;47.42;;;22.13;;
40729;SDS011;26418;50.070;8.436;2022-11-30T14:44:50;42.08;;;20.77;;
40729;SDS011;26418;50.070;8.436;2022-11-30T14:47:20;42.65;;;19.88;;
40729;SDS011;26418;50.070;8.436;2022-11-30T14:49:48;48.00;;;17.77;;
40729;SDS011;26418;50.070;8.436;2022-11-30T14:52:35;40.97;;;19.10;;
40729;SDS011;26418;50.070;8.436;2022-11-30T15:00:46;55.92;;;25.30;;
40729;SDS011;26418;50.070;8.436;2022-11-30T15:03:31;45.58;;;22.55;;
40729;SDS011;26418;50.070;8.436;2022-11-30T15:06:00;49.47;;;21.80;;
40729;SDS011;26418;50.070;8.436;2022-11-30T15:08:36;47.78;;;24.73;;
40729;SDS011;26418;50.070;8.436;2022-11-30T15:11:10;44.53;;;22.02;;
40729;SDS011;26418;50.070;8.436;2022-11-30T15:13:41;42.60;;;20.52;;
40729;SDS011;26418;50.070;8.436;2022-11-30T15:16:18;34.85;;;19.08;;
40729;SDS011;26418;50.070;8.436;2022-11-30T15:18:44;38.90;;;19.30;;
40729;SDS011;26418;50.070;8.436;2022-11-30T15:21:12;39.55;;;21.15;;
40729;SDS011;26418;50.070;8.436;2022-11-30T15:23:43;50.75;;;23.38;;
40729;SDS011;26418;50.070;8.436;2022-11-30T15:26:14;56.90;;;26.08;;
40729;SDS011;26418;50.070;8.436;2022-11-30T15:28:42;55.38;;;24.30;;
40729;SDS011;26418;50.070;8.436;2022-11-30T15:31:14;56.38;;;26.08;;
40729;SDS011;26418;50.070;8.436;2022-11-30T15:33:44;51.22;;;23.63;;
40729;SDS011;26418;50.070;8.436;2022-11-30T15:36:11;54.05;;;25.92;;
40729;SDS011;26418;50.070;8.436;2022-11-30T15:38:38;54.63;;;25.85;;
40729;SDS011;26418;50.070;8.436;2022-11-30T15:41:05;54.70;;;26.75;;
40729;SDS011;26418;50.070;8.436;2022-11-30T15:43:41;50.15;;;24.95;;
40729;SDS011;26418;50.070;8.436;2022-11-30T15:46:25;56.58;;;25.67;;
40729;SDS011;26418;50.070;8.436;2022-11-30T15:51:47;59.65;;;25.42;;
40729;SDS011;26418;50.070;8.436;2022-11-30T15:54:49;60.42;;;26.77;;
40729;SDS011;26418;50.070;8.436;2022-11-30T15:57:17;56.33;;;28.38;;
40729;SDS011;26418;50.070;8.436;2022-11-30T15:59:43;51.00;;;25.90;;
40729;SDS011;26418;50.070;8.436;2022-11-30T16:02:33;54.45;;;25.25;;
40729;SDS011;26418;50.070;8.436;2022-11-30T16:05:04;53.20;;;26.45;;
40729;SDS011;26418;50.070;8.436;2022-11-30T16:07:35;43.90;;;22.55;;
40729;SDS011;26418;50.070;8.436;2022-11-30T16:12:40;59.50;;;26.35;;
40729;SDS011;26418;50.070;8.436;2022-11-30T16:15:20;49.47;;;24.02;;
40729;SDS011;26418;50.070;8.436;2022-11-30T16:17:48;47.30;;;24.02;;
40729;SDS011;26418;50.070;8.436;2022-11-30T16:20:15;52.83;;;26.15;;
40729;SDS011;26418;50.070;8.436;2022-11-30T16:22:42;50.75;;;25.33;;
40729;SDS011;26418;50.070;8.436;2022-11-30T16:25:16;47.20;;;22.77;;
40729;SDS011;26418;50.070;8.436;2022-11-30T16:27:44;46.33;;;23.33;;
40729;SDS011;26418;50.070;8.436;2022-11-30T16:30:15;43.70;;;21.80;;
40729;SDS011;26418;50.070;8.436;2022-11-30T16:32:42;49.45;;;22.98;;
40729;SDS011;26418;50.070;8.436;2022-11-30T16:35:19;47.67;;;23.02;;
40729;SDS011;26418;50.070;8.436;2022-11-30T16:37:47;47.95;;;23.65;;
40729;SDS011;26418;50.070;8.436;2022-11-30T16:40:13;42.95;;;21.20;;
40729;SDS011;26418;50.070;8.436;2022-11-30T16:42:39;43.15;;;20.88;;
40729;SDS011;26418;50.070;8.436;2022-11-30T16:45:10;37.78;;;21.17;;
40729;SDS011;26418;50.070;8.436;2022-11-30T16:47:39;40.17;;;20.25;;
40729;SDS011;26418;50.070;8.436;2022-11-30T16:50:05;39.95;;;19.75;;
40729;SDS011;26418;50.070;8.436;2022-11-30T16:52:32;38.63;;;19.58;;
40729;SDS011;26418;50.070;8.436;2022-11-30T16:54:57;35.72;;;19.67;;
40729;SDS011;26418;50.070;8.436;2022-11-30T16:57:23;29.88;;;17.13;;
40729;SDS011;26418;50.070;8.436;2022-11-30T16:59:48;33.15;;;17.73;;
40729;SDS011;26418;50.070;8.436;2022-11-30T17:02:16;31.77;;;17.38;;
40729;SDS011;26418;50.070;8.436;2022-11-30T17:04:44;24.00;;;14.48;;